Time;durP1;ratioP1;P1;durP2;ratioP2;P2;SDS_P1;SDS_P2;PMS_P1;PMS_P2;Temp;Humidity;BMP_temperature;BMP_pressure;BME280_temperature;BME280_humidity;BME280_pressure;Samples;Min_cycle;Max_cycle;Signal;HPM_P1;HPM_P2
2022/06/16 00:00:50;;;;;;;1.60;1.50;;;;;23.90;100738.00;;;;2078534;28;20214;-57
2022/06/16 00:01:50;;;;;;;1.60;1.40;;;;;23.90;100742.00;;;;2078581;28;20221;-58
2022/06/16 00:02:51;;;;;;;1.70;1.40;;;;;23.90;100730.00;;;;2077900;28;20296;-58
2022/06/16 00:03:51;;;;;;;1.47;1.37;;;;;23.90;100732.00;;;;2078245;28;20210;-57
2022/06/16 00:04:52;;;;;;;1.60;1.50;;;;;23.90;100734.00;;;;2078200;28;20217;-58
2022/06/16 00:05:52;;;;;;;1.50;1.40;;;;;23.90;100745.00;;;;2073026;28;21031;-58
2022/06/16 00:06:55;;;;;;;1.67;1.57;;;;;23.90;100743.00;;;;2069842;28;20689;-57
2022/06/16 00:07:55;;;;;;;2.50;1.58;;;;;23.90;100747.00;;;;2070200;28;20846;-57
2022/06/16 00:08:56;;;;;;;2.10;1.67;;;;;23.90;100744.00;;;;2070779;28;20228;-57
2022/06/16 00:09:56;;;;;;;1.63;1.40;;;;;23.80;100742.00;;;;2070744;28;20557;-56
2022/06/16 00:12:15;;;;;;;1.55;1.45;;;;;23.90;100754.00;;;;2070742;28;20214;-56
2022/06/16 00:13:16;;;;;;;1.40;1.30;;;;;23.90;100748.00;;;;2072806;28;20202;-56
2022/06/16 00:14:16;;;;;;;1.97;1.37;;;;;23.90;100750.00;;;;2069251;28;20266;-55
2022/06/16 00:15:18;;;;;;;1.60;1.50;;;;;23.90;100751.00;;;;2075831;28;20209;-56
2022/06/16 00:16:19;;;;;;;1.98;1.67;;;;;23.80;100748.00;;;;2069556;28;20240;-58
2022/06/16 00:17:20;;;;;;;1.77;1.40;;;;;23.80;100740.00;;;;2069930;28;20210;-55
2022/06/16 00:18:20;;;;;;;1.50;1.40;;;;;23.90;100735.00;;;;2077967;28;21240;-55
2022/06/16 00:19:20;;;;;;;1.57;1.47;;;;;23.90;100727.00;;;;2080100;28;20222;-57
2022/06/16 00:20:21;;;;;;;1.47;1.37;;;;;23.80;100728.00;;;;2079449;28;20732;-57
2022/06/16 00:21:21;;;;;;;1.30;1.20;;;;;23.80;100735.00;;;;2079298;28;20222;-56
2022/06/16 00:22:21;;;;;;;1.63;1.53;;;;;23.90;100733.00;;;;2079350;28;20768;-56
2022/06/16 00:23:22;;;;;;;1.80;1.60;;;;;23.90;100734.00;;;;2071384;28;20237;-57
2022/06/16 00:24:26;;;;;;;1.77;1.57;;;;;23.90;100736.00;;;;2077393;28;20225;-56
2022/06/16 00:25:27;;;;;;;1.50;1.40;;;;;23.90;100737.00;;;;2076661;28;20224;-57
2022/06/16 00:26:27;;;;;;;1.60;1.50;;;;;23.80;100725.00;;;;2078734;28;20307;-57
2022/06/16 00:27:28;;;;;;;1.80;1.70;;;;;23.90;100736.00;;;;2077952;28;20206;-57
2022/06/16 00:28:28;;;;;;;1.50;1.40;;;;;23.80;100740.00;;;;2077627;28;20214;-58
2022/06/16 00:29:29;;;;;;;1.70;1.60;;;;;23.80;100739.00;;;;2078465;28;20259;-57
2022/06/16 00:30:29;;;;;;;1.77;1.60;;;;;23.80;100739.00;;;;2078571;28;20221;-58
2022/06/16 00:31:29;;;;;;;2.00;1.63;;;;;23.80;100746.00;;;;2078721;28;20210;-58
2022/06/16 00:32:30;;;;;;;1.50;1.40;;;;;23.80;100750.00;;;;2078717;28;20213;-57
2022/06/16 00:33:30;;;;;;;3.10;1.60;;;;;23.80;100749.00;;;;2078812;28;20225;-57
2022/06/16 00:34:31;;;;;;;1.63;1.53;;;;;23.80;100737.00;;;;2078179;28;20218;-57
2022/06/16 00:35:31;;;;;;;1.93;1.50;;;;;23.80;100742.00;;;;2068902;28;20210;-57
2022/06/16 00:36:32;;;;;;;2.00;1.80;;;;;23.80;100739.00;;;;2077493;28;20285;-57
2022/06/16 00:37:32;;;;;;;1.60;1.50;;;;;23.80;100746.00;;;;2078685;28;20217;-57
2022/06/16 00:38:32;;;;;;;1.57;1.43;;;;;23.80;100752.00;;;;2078559;28;20451;-57
2022/06/16 00:39:33;;;;;;;1.67;1.53;;;;;23.80;100742.00;;;;2078334;28;20256;-57
2022/06/16 00:40:33;;;;;;;2.00;1.70;;;;;23.80;100745.00;;;;2078511;28;20670;-57
2022/06/16 00:41:34;;;;;;;1.50;1.40;;;;;23.80;100739.00;;;;2078523;28;20577;-57
2022/06/16 00:42:35;;;;;;;1.67;1.57;;;;;23.80;100738.00;;;;2075599;28;20221;-57
2022/06/16 00:43:35;;;;;;;2.58;1.70;;;;;23.80;100731.00;;;;2070575;28;20675;-57
2022/06/16 00:44:38;;;;;;;2.53;1.50;;;;;23.80;100730.00;;;;2070307;28;20221;-58
2022/06/16 00:46:03;;;;;;;1.70;1.60;;;;;23.80;100733.00;;;;2068778;28;20219;-58
2022/06/16 00:47:03;;;;;;;2.08;1.55;;;;;23.80;100739.00;;;;2070180;28;20882;-58
2022/06/16 00:48:04;;;;;;;1.57;1.47;;;;;23.80;100731.00;;;;2070505;28;20460;-57
2022/06/16 00:49:05;;;;;;;1.90;1.80;;;;;23.80;100732.00;;;;2069161;28;20665;-58
2022/06/16 00:50:06;;;;;;;2.00;1.75;;;;;23.80;100739.00;;;;2053473;28;20263;-58
2022/06/16 00:51:28;;;;;;;2.03;1.60;;;;;23.80;100744.00;;;;2061340;28;20227;-58
2022/06/16 00:52:30;;;;;;;1.65;1.55;;;;;23.80;100752.00;;;;2069996;28;20246;-58
2022/06/16 00:53:30;;;;;;;1.73;1.63;;;;;23.80;100746.00;;;;2070379;28;20244;-57
2022/06/16 00:55:04;;;;;;;1.67;1.57;;;;;23.80;100758.00;;;;2061408;28;20305;-58
2022/06/16 00:56:05;;;;;;;2.03;1.60;;;;;23.80;100759.00;;;;2058660;28;20251;-57
2022/06/16 00:57:13;;;;;;;1.77;1.67;;;;;23.80;100759.00;;;;2069399;28;20226;-58
2022/06/16 00:58:13;;;;;;;1.65;1.55;;;;;23.80;100770.00;;;;2069566;28;20276;-59
2022/06/16 00:59:14;;;;;;;1.67;1.57;;;;;23.80;100762.00;;;;2053915;28;20274;-57
2022/06/16 01:01:26;;;;;;;1.80;1.70;;;;;23.80;100762.00;;;;2070054;28;20226;-58
2022/06/16 01:02:28;;;;;;;1.77;1.63;;;;;23.80;100755.00;;;;2069818;28;20218;-57
2022/06/16 01:04:53;;;;;;;1.70;1.50;;;;;23.80;100741.00;;;;2078375;28;20308;-58
2022/06/16 01:05:53;;;;;;;1.60;1.50;;;;;23.80;100732.00;;;;2069560;28;20233;-57
2022/06/16 01:06:54;;;;;;;1.63;1.53;;;;;23.80;100741.00;;;;2085678;28;20219;-58
2022/06/16 01:07:55;;;;;;;1.70;1.60;;;;;23.80;100758.00;;;;2083972;28;20347;-58
2022/06/16 01:09:17;;;;;;;1.60;1.50;;;;;23.80;100739.00;;;;2078530;28;20626;-58
2022/06/16 01:10:17;;;;;;;1.85;1.75;;;;;23.80;100743.00;;;;2078222;28;20215;-57
2022/06/16 01:13:43;;;;;;;2.78;1.55;;;;;23.80;100735.00;;;;2076546;28;20983;-58
2022/06/16 01:15:22;;;;;;;1.50;1.40;;;;;23.80;100741.00;;;;2078170;28;20709;-57
2022/06/16 01:16:25;;;;;;;1.70;1.60;;;;;23.80;100730.00;;;;2060574;28;20223;-57
2022/06/16 01:17:47;;;;;;;1.50;1.40;;;;;23.80;100731.00;;;;2060833;28;20227;-58
2022/06/16 01:19:23;;;;;;;1.67;1.58;;;;;23.80;100734.00;;;;2064334;28;20213;-58
2022/06/16 01:20:43;;;;;;;2.42;1.83;;;;;23.80;100738.00;;;;2078126;28;20224;-57
2022/06/16 01:21:52;;;;;;;2.47;1.60;;;;;23.80;100741.00;;;;2078073;28;20556;-57
2022/06/16 01:23:13;;;;;;;1.60;1.50;;;;;23.80;100738.00;;;;2076130;28;20634;-57
2022/06/16 01:24:32;;;;;;;1.70;1.60;;;;;23.80;100740.00;;;;2072435;28;20315;-57
2022/06/16 01:25:58;;;;;;;1.67;1.58;;;;;23.80;100738.00;;;;2072873;28;20221;-57
2022/06/16 01:27:20;;;;;;;1.80;1.70;;;;;23.80;100738.00;;;;2072439;28;20217;-58
2022/06/16 01:28:29;;;;;;;1.90;1.80;;;;;23.80;100743.00;;;;2077772;28;20308;-57
2022/06/16 01:29:58;;;;;;;1.80;1.70;;;;;23.80;100738.00;;;;2069525;28;20218;-58
2022/06/16 01:31:05;;;;;;;1.75;1.65;;;;;23.80;100747.00;;;;2073301;28;20244;-57
2022/06/16 01:32:20;;;;;;;1.80;1.60;;;;;23.80;100735.00;;;;2069510;28;20225;-55
2022/06/16 01:33:36;;;;;;;1.75;1.65;;;;;23.80;100742.00;;;;2071796;28;20313;-57
2022/06/16 01:34:39;;;;;;;1.70;1.60;;;;;23.80;100742.00;;;;2077895;28;20306;-58
2022/06/16 01:36:07;;;;;;;1.90;1.70;;;;;23.80;100744.00;;;;2076706;28;20221;-57
2022/06/16 01:37:23;;;;;;;1.80;1.55;;;;;23.80;100748.00;;;;2076173;28;20608;-57
2022/06/16 01:38:33;;;;;;;1.65;1.55;;;;;23.80;100744.00;;;;2077218;28;20548;-58
2022/06/16 01:39:45;;;;;;;1.70;1.60;;;;;23.80;100736.00;;;;2076888;28;20206;-57
2022/06/16 01:40:58;;;;;;;2.20;1.55;;;;;23.80;100742.00;;;;2069976;28;20218;-56
2022/06/16 01:42:03;;;;;;;1.60;1.50;;;;;23.70;100748.00;;;;2070195;28;20210;-54
2022/06/16 01:43:27;;;;;;;1.90;1.80;;;;;23.80;100756.00;;;;2069294;28;20297;-57
2022/06/16 01:44:30;;;;;;;1.85;1.70;;;;;23.80;100762.00;;;;2069628;28;20802;-55
2022/06/16 01:45:43;;;;;;;2.03;1.83;;;;;23.80;100753.00;;;;2073515;28;20237;-56
2022/06/16 01:46:43;;;;;;;1.73;1.63;;;;;23.80;100751.00;;;;2076822;28;20209;-57
2022/06/16 01:47:47;;;;;;;2.37;1.90;;;;;23.80;100759.00;;;;2050675;28;20603;-58
2022/06/16 01:48:51;;;;;;;2.20;1.88;;;;;23.80;100759.00;;;;2051666;28;20227;-56
2022/06/16 01:49:53;;;;;;;2.03;1.85;;;;;23.80;100762.00;;;;2054270;28;20210;-58
2022/06/16 01:50:56;;;;;;;1.88;1.75;;;;;23.80;100763.00;;;;2061703;28;20242;-58
2022/06/16 01:52:06;;;;;;;1.88;1.77;;;;;23.80;100759.00;;;;2060901;28;20199;-55
2022/06/16 01:53:08;;;;;;;1.90;1.70;;;;;23.80;100755.00;;;;2054432;28;20640;-58
2022/06/16 01:54:12;;;;;;;1.83;1.73;;;;;23.70;100754.00;;;;2061241;28;20250;-56
2022/06/16 01:55:15;;;;;;;1.90;1.70;;;;;23.70;100754.00;;;;2069349;28;20214;-56
2022/06/16 01:56:28;;;;;;;1.65;1.55;;;;;23.70;100755.00;;;;2070671;28;20210;-57
2022/06/16 01:57:43;;;;;;;1.88;1.75;;;;;23.70;100760.00;;;;2072705;28;20230;-58
2022/06/16 01:58:47;;;;;;;1.92;1.83;;;;;23.80;100747.00;;;;2072277;28;20209;-58
2022/06/16 01:59:54;;;;;;;1.40;1.30;;;;;23.80;100741.00;;;;2067434;28;20218;-57
2022/06/16 02:00:55;;;;;;;3.67;1.60;;;;;23.80;100762.00;;;;2062613;28;20219;-55
2022/06/16 02:02:07;;;;;;;1.92;1.83;;;;;23.80;100758.00;;;;2062982;28;20695;-56
2022/06/16 02:03:10;;;;;;;1.98;1.60;;;;;23.80;100755.00;;;;2063645;28;20494;-57
2022/06/16 02:04:14;;;;;;;2.20;2.00;;;;;23.80;100763.00;;;;2062843;28;20223;-56
2022/06/16 02:05:21;;;;;;;2.08;1.88;;;;;23.70;100766.00;;;;2062796;28;20242;-55
2022/06/16 02:06:23;;;;;;;1.85;1.75;;;;;23.80;100771.00;;;;2062154;28;20949;-58
2022/06/16 02:07:35;;;;;;;1.63;1.52;;;;;23.70;100759.00;;;;2062111;28;20223;-57
2022/06/16 02:08:38;;;;;;;2.30;1.75;;;;;23.80;100767.00;;;;2054951;28;20223;-58
2022/06/16 02:09:44;;;;;;;2.00;1.70;;;;;23.80;100765.00;;;;2054556;28;20228;-57
2022/06/16 02:10:49;;;;;;;2.25;1.70;;;;;23.80;100771.00;;;;2054705;28;20397;-57
2022/06/16 02:11:49;;;;;;;1.85;1.73;;;;;23.80;100773.00;;;;2043784;28;20223;-58
2022/06/16 02:12:55;;;;;;;1.40;1.30;;;;;23.80;100780.00;;;;2051376;28;20220;-57
2022/06/16 02:14:16;;;;;;;1.98;1.85;;;;;23.70;100781.00;;;;2058727;28;20214;-58
2022/06/16 02:15:32;;;;;;;1.73;1.63;;;;;23.80;100783.00;;;;2056708;28;20567;-59
2022/06/16 02:16:33;;;;;;;1.75;1.65;;;;;23.70;100774.00;;;;2062727;28;20301;-57
2022/06/16 02:17:33;;;;;;;1.80;1.70;;;;;23.80;100780.00;;;;2062148;28;20219;-58
2022/06/16 02:18:35;;;;;;;1.47;1.33;;;;;23.80;100786.00;;;;2062352;28;20485;-57
2022/06/16 02:19:36;;;;;;;2.00;1.80;;;;;23.70;100782.00;;;;2070570;28;20229;-59
2022/06/16 02:20:46;;;;;;;2.07;1.87;;;;;23.70;100772.00;;;;2062553;28;20644;-57
2022/06/16 02:21:49;;;;;;;1.73;1.63;;;;;23.80;100774.00;;;;2063421;28;20226;-56
2022/06/16 02:22:49;;;;;;;1.67;1.58;;;;;23.70;100764.00;;;;2062966;28;20373;-58
2022/06/16 02:23:50;;;;;;;2.07;1.83;;;;;23.70;100763.00;;;;2061675;28;20242;-57
2022/06/16 02:24:50;;;;;;;1.30;1.20;;;;;23.70;100769.00;;;;2053956;28;20234;-56
2022/06/16 02:25:53;;;;;;;1.70;1.60;;;;;23.70;100763.00;;;;2052864;28;20211;-57
2022/06/16 02:26:55;;;;;;;1.83;1.60;;;;;23.70;100776.00;;;;2059480;28;20219;-59
2022/06/16 02:27:56;;;;;;;1.60;1.50;;;;;23.70;100768.00;;;;2052899;28;20228;-58
2022/06/16 02:28:58;;;;;;;1.63;1.53;;;;;23.70;100772.00;;;;2062392;28;20242;-57
2022/06/16 02:29:58;;;;;;;1.98;1.88;;;;;23.70;100773.00;;;;2071285;28;20264;-58
2022/06/16 02:31:23;;;;;;;1.93;1.60;;;;;23.70;100771.00;;;;2071127;28;20280;-55
2022/06/16 02:32:37;;;;;;;2.17;1.85;;;;;23.70;100772.00;;;;2070057;28;20229;-59
2022/06/16 02:33:57;;;;;;;1.90;1.55;;;;;23.70;100759.00;;;;2071769;28;20240;-60
2022/06/16 02:35:02;;;;;;;2.35;1.90;;;;;23.70;100770.00;;;;2069826;28;20613;-58
2022/06/16 02:36:11;;;;;;;1.85;1.75;;;;;23.70;100768.00;;;;2077299;28;20648;-56
2022/06/16 02:37:34;;;;;;;1.90;1.80;;;;;23.70;100768.00;;;;2078311;28;20604;-56
2022/06/16 02:39:02;;;;;;;2.28;1.88;;;;;23.70;100779.00;;;;2065057;28;20233;-56
2022/06/16 02:40:15;;;;;;;1.90;1.80;;;;;23.70;100769.00;;;;2073713;28;20206;-56
2022/06/16 02:41:25;;;;;;;2.38;1.80;;;;;23.70;100786.00;;;;2070242;28;20218;-57
2022/06/16 02:42:28;;;;;;;1.80;1.70;;;;;23.70;100773.00;;;;2071265;28;20267;-61
2022/06/16 02:43:38;;;;;;;2.22;2.03;;;;;23.70;100776.00;;;;2071266;28;20222;-57
2022/06/16 02:44:59;;;;;;;1.77;1.60;;;;;23.70;100780.00;;;;2070665;28;20229;-57
2022/06/16 02:46:12;;;;;;;1.70;1.60;;;;;23.70;100774.00;;;;2077344;28;20304;-56
2022/06/16 02:47:15;;;;;;;1.75;1.65;;;;;23.70;100770.00;;;;2071086;28;20245;-57
2022/06/16 02:48:20;;;;;;;1.50;1.40;;;;;23.70;100774.00;;;;2071443;28;20305;-57
2022/06/16 02:49:29;;;;;;;1.63;1.30;;;;;23.70;100773.00;;;;2078312;28;20267;-57
2022/06/16 02:50:51;;;;;;;2.03;1.83;;;;;23.70;100771.00;;;;2070824;28;20304;-56
2022/06/16 02:52:00;;;;;;;1.58;1.48;;;;;23.70;100773.00;;;;2078984;28;20788;-56
2022/06/16 02:53:14;;;;;;;2.03;1.60;;;;;23.70;100759.00;;;;2073265;28;20218;-58
2022/06/16 02:54:27;;;;;;;1.92;1.83;;;;;23.70;100764.00;;;;2072116;28;20206;-57
2022/06/16 02:55:32;;;;;;;1.80;1.70;;;;;23.70;100771.00;;;;2068839;28;20229;-57
2022/06/16 02:56:58;;;;;;;1.85;1.65;;;;;23.70;100768.00;;;;2046654;28;20213;-59
2022/06/16 02:57:59;;;;;;;1.77;1.67;;;;;23.70;100757.00;;;;2056153;28;20210;-58
2022/06/16 02:59:04;;;;;;;1.80;1.70;;;;;23.70;100763.00;;;;2062528;28;20214;-58
2022/06/16 03:00:13;;;;;;;1.90;1.80;;;;;23.70;100772.00;;;;2046517;28;20772;-55
2022/06/16 03:01:13;;;;;;;1.90;1.70;;;;;23.70;100773.00;;;;2056187;28;20250;-58
2022/06/16 03:02:18;;;;;;;1.60;1.50;;;;;23.70;100778.00;;;;2061845;28;20687;-57
2022/06/16 03:03:25;;;;;;;1.75;1.55;;;;;23.70;100775.00;;;;2062365;28;20277;-57
2022/06/16 03:04:40;;;;;;;1.85;1.73;;;;;23.70;100771.00;;;;2076791;28;20328;-57
2022/06/16 03:05:41;;;;;;;2.65;1.77;;;;;23.70;100776.00;;;;2077469;28;20245;-58
2022/06/16 03:06:42;;;;;;;1.63;1.53;;;;;23.70;100766.00;;;;2078792;28;20577;-57
2022/06/16 03:07:42;;;;;;;2.00;1.65;;;;;23.70;100768.00;;;;2078144;28;20209;-57
2022/06/16 03:08:43;;;;;;;1.60;1.50;;;;;23.70;100764.00;;;;2070044;28;20214;-57
2022/06/16 03:09:43;;;;;;;1.63;1.53;;;;;23.70;100766.00;;;;2070450;28;20364;-58
2022/06/16 03:10:53;;;;;;;2.10;1.73;;;;;23.70;100768.00;;;;2079183;28;20241;-58
2022/06/16 03:11:53;;;;;;;1.65;1.55;;;;;23.70;100768.00;;;;2078922;28;20324;-57
2022/06/16 03:12:53;;;;;;;1.83;1.63;;;;;23.70;100760.00;;;;2079057;28;20695;-57
2022/06/16 03:13:54;;;;;;;1.53;1.43;;;;;23.70;100726.00;;;;2078867;28;20714;-57
2022/06/16 03:14:54;;;;;;;1.70;1.60;;;;;23.70;100764.00;;;;2079258;28;20816;-58
2022/06/16 03:15:55;;;;;;;1.60;1.50;;;;;23.70;100766.00;;;;2078375;28;20213;-57
2022/06/16 03:16:56;;;;;;;1.70;1.58;;;;;23.70;100764.00;;;;2078327;28;20253;-57
2022/06/16 03:17:57;;;;;;;1.90;1.60;;;;;23.70;100759.00;;;;2075140;28;21036;-57
2022/06/16 03:18:57;;;;;;;1.60;1.50;;;;;23.70;100765.00;;;;2078981;28;20475;-54
2022/06/16 03:19:58;;;;;;;2.80;1.60;;;;;23.70;100766.00;;;;2078751;28;20264;-57
2022/06/16 03:20:58;;;;;;;1.70;1.60;;;;;23.70;100764.00;;;;2070331;28;20226;-58
2022/06/16 03:21:59;;;;;;;1.60;1.50;;;;;23.70;100768.00;;;;2078526;28;21189;-57
2022/06/16 03:22:59;;;;;;;1.70;1.60;;;;;23.70;100780.00;;;;2078075;28;20225;-56
2022/06/16 03:23:59;;;;;;;1.73;1.50;;;;;23.70;100786.00;;;;2074132;28;20225;-58
2022/06/16 03:25:00;;;;;;;1.70;1.53;;;;;23.70;100788.00;;;;2073673;28;20217;-56
2022/06/16 03:26:00;;;;;;;2.20;1.60;;;;;23.70;100783.00;;;;2072416;28;20213;-58
2022/06/16 03:27:01;;;;;;;1.67;1.57;;;;;23.70;100794.00;;;;2070532;28;20216;-58
2022/06/16 03:28:01;;;;;;;2.10;1.57;;;;;23.70;100794.00;;;;2070202;28;20605;-57
2022/06/16 03:29:01;;;;;;;1.67;1.57;;;;;23.70;100801.00;;;;2070743;28;20214;-58
2022/06/16 03:30:02;;;;;;;2.23;1.97;;;;;23.60;100802.00;;;;2072988;28;20213;-61
2022/06/16 03:31:03;;;;;;;2.07;1.87;;;;;23.70;100809.00;;;;2079217;28;20224;-60
2022/06/16 03:32:03;;;;;;;1.80;1.70;;;;;23.70;100806.00;;;;2078366;28;20229;-59
2022/06/16 03:33:06;;;;;;;1.73;1.40;;;;;23.70;100807.00;;;;2071059;28;20781;-55
2022/06/16 03:34:06;;;;;;;1.70;1.60;;;;;23.70;100817.00;;;;2067132;28;20215;-58
2022/06/16 03:35:07;;;;;;;2.70;1.80;;;;;23.70;100805.00;;;;2073705;28;20600;-57
2022/06/16 03:36:09;;;;;;;1.83;1.70;;;;;23.60;100799.00;;;;2069782;28;20429;-58
2022/06/16 03:37:09;;;;;;;1.88;1.77;;;;;23.60;100808.00;;;;2070890;28;20320;-57
2022/06/16 03:39:14;;;;;;;1.60;1.50;;;;;23.60;100812.00;;;;2071433;28;20905;-57
2022/06/16 03:40:14;;;;;;;2.23;1.73;;;;;23.60;100816.00;;;;2069911;28;20210;-55
2022/06/16 03:41:15;;;;;;;1.90;1.63;;;;;23.60;100812.00;;;;2078261;28;20272;-57
2022/06/16 03:42:15;;;;;;;2.50;2.07;;;;;23.60;100817.00;;;;2078800;28;20198;-57
2022/06/16 03:43:15;;;;;;;1.30;1.20;;;;;23.60;100809.00;;;;2070997;28;20273;-57
2022/06/16 03:44:16;;;;;;;1.87;1.67;;;;;23.60;100811.00;;;;2068047;28;20369;-55
2022/06/16 03:45:16;;;;;;;1.97;1.83;;;;;23.60;100817.00;;;;2069393;28;20214;-55
2022/06/16 03:46:17;;;;;;;2.50;1.50;;;;;23.60;100815.00;;;;2068997;28;20214;-54
2022/06/16 03:47:17;;;;;;;2.00;1.80;;;;;23.60;100820.00;;;;2061547;28;20289;-57
2022/06/16 03:48:17;;;;;;;1.60;1.50;;;;;23.60;100819.00;;;;2061398;28;20291;-58
2022/06/16 03:49:18;;;;;;;1.40;1.30;;;;;23.70;100818.00;;;;2071397;28;20210;-59
2022/06/16 03:50:18;;;;;;;1.50;1.40;;;;;23.70;100822.00;;;;2069641;28;20226;-59
2022/06/16 03:51:19;;;;;;;1.80;1.70;;;;;23.60;100829.00;;;;2070086;28;20206;-56
2022/06/16 03:52:19;;;;;;;2.00;1.67;;;;;23.60;100783.00;;;;2080110;28;20206;-56
2022/06/16 03:53:19;;;;;;;1.70;1.60;;;;;23.60;100831.00;;;;2073386;28;20221;-58
2022/06/16 03:54:20;;;;;;;1.70;1.60;;;;;23.60;100830.00;;;;2072183;28;20222;-55
2022/06/16 03:55:20;;;;;;;1.70;1.60;;;;;23.60;100831.00;;;;2072091;28;20301;-56
2022/06/16 03:56:20;;;;;;;2.10;1.60;;;;;23.60;100839.00;;;;2069278;28;20644;-57
2022/06/16 03:57:21;;;;;;;2.07;1.63;;;;;23.60;100834.00;;;;2071258;28;20703;-56
2022/06/16 03:58:21;;;;;;;1.90;1.80;;;;;23.60;100848.00;;;;2071219;28;20273;-59
2022/06/16 03:59:21;;;;;;;1.60;1.50;;;;;23.60;100848.00;;;;2078649;28;20268;-60
2022/06/16 04:00:22;;;;;;;2.30;1.50;;;;;23.60;100847.00;;;;2080420;28;20236;-58
2022/06/16 04:01:22;;;;;;;1.77;1.67;;;;;23.60;100851.00;;;;2078951;28;20248;-55
2022/06/16 04:02:23;;;;;;;1.60;1.50;;;;;23.60;100854.00;;;;2069582;28;20806;-57
2022/06/16 04:04:42;;;;;;;1.80;1.70;;;;;23.60;100852.00;;;;2072212;28;20218;-60
2022/06/16 04:05:42;;;;;;;1.53;1.43;;;;;23.60;100859.00;;;;2070110;28;20214;-56
2022/06/16 04:06:43;;;;;;;1.67;1.57;;;;;23.60;100857.00;;;;2079868;28;20236;-57
2022/06/16 04:07:43;;;;;;;2.00;1.50;;;;;23.60;100856.00;;;;2078693;28;20216;-57
2022/06/16 04:08:43;;;;;;;1.63;1.53;;;;;23.60;100853.00;;;;2078465;28;20206;-58
2022/06/16 04:09:44;;;;;;;1.80;1.30;;;;;23.60;100858.00;;;;2069959;28;20294;-58
2022/06/16 04:10:44;;;;;;;1.40;1.30;;;;;23.60;100861.00;;;;2067827;28;20598;-59
2022/06/16 04:11:44;;;;;;;1.87;1.70;;;;;23.70;100866.00;;;;2080146;28;20577;-57
2022/06/16 04:12:45;;;;;;;1.50;1.40;;;;;23.60;100856.00;;;;2079863;28;20625;-56
2022/06/16 04:13:45;;;;;;;1.80;1.70;;;;;23.60;100855.00;;;;2079428;28;20787;-56
2022/06/16 04:14:45;;;;;;;2.37;1.73;;;;;23.70;100846.00;;;;2079541;28;20202;-59
2022/06/16 04:15:46;;;;;;;2.40;1.67;;;;;23.60;100847.00;;;;2080183;28;20201;-59
2022/06/16 04:16:49;;;;;;;2.57;1.87;;;;;23.60;100849.00;;;;2080154;28;20229;-62
2022/06/16 04:17:49;;;;;;;1.48;1.38;;;;;23.60;100829.00;;;;2079436;28;20285;-57
2022/06/16 04:18:49;;;;;;;1.67;1.57;;;;;23.60;100835.00;;;;2065272;28;20930;-57
2022/06/16 04:21:10;;;;;;;2.00;1.60;;;;;23.70;100831.00;;;;2071260;28;20218;-57
2022/06/16 04:22:11;;;;;;;1.38;1.27;;;;;23.60;100834.00;;;;2070345;28;20213;-59
2022/06/16 04:23:11;;;;;;;1.60;1.50;;;;;23.60;100827.00;;;;2070246;28;20904;-56
2022/06/16 04:24:12;;;;;;;2.17;1.80;;;;;23.60;100803.00;;;;2070458;28;20214;-58
2022/06/16 04:25:14;;;;;;;1.97;1.53;;;;;23.60;100835.00;;;;2070937;28;20298;-57
2022/06/16 04:26:14;;;;;;;1.50;1.40;;;;;23.60;100838.00;;;;2061984;28;20770;-57
2022/06/16 04:27:14;;;;;;;1.70;1.60;;;;;23.60;100846.00;;;;2061200;28;20222;-58
2022/06/16 04:28:15;;;;;;;1.43;1.30;;;;;23.60;100838.00;;;;2077513;28;20221;-56
2022/06/16 04:29:15;;;;;;;1.87;1.50;;;;;23.60;100844.00;;;;2078783;28;20214;-58
2022/06/16 04:30:16;;;;;;;1.80;1.70;;;;;23.60;100851.00;;;;2078627;28;20216;-55
2022/06/16 04:31:16;;;;;;;1.80;1.63;;;;;23.70;100854.00;;;;2069728;28;20222;-57
2022/06/16 04:32:17;;;;;;;1.63;1.53;;;;;23.60;100851.00;;;;2068966;28;20544;-55
2022/06/16 04:33:18;;;;;;;1.90;1.70;;;;;23.70;100858.00;;;;2069394;28;20214;-57
2022/06/16 04:34:18;;;;;;;1.67;1.58;;;;;23.60;100863.00;;;;2077137;28;20292;-57
2022/06/16 04:35:19;;;;;;;1.80;1.63;;;;;23.70;100859.00;;;;2077024;28;20697;-55
2022/06/16 04:36:19;;;;;;;1.50;1.40;;;;;23.70;100859.00;;;;2069361;28;20218;-56
2022/06/16 04:37:20;;;;;;;2.00;1.60;;;;;23.70;100855.00;;;;2075390;28;20221;-54
2022/06/16 04:38:20;;;;;;;1.70;1.60;;;;;23.60;100862.00;;;;2073760;28;20591;-56
2022/06/16 04:39:20;;;;;;;1.43;1.33;;;;;23.70;100859.00;;;;2078632;28;20588;-57
2022/06/16 04:40:21;;;;;;;1.53;1.43;;;;;23.70;100850.00;;;;2078090;28;20213;-57
2022/06/16 04:41:21;;;;;;;1.70;1.60;;;;;23.70;100855.00;;;;2074684;28;20233;-55
2022/06/16 04:42:22;;;;;;;1.60;1.50;;;;;23.70;100852.00;;;;2076750;28;20237;-57
2022/06/16 04:43:22;;;;;;;1.53;1.43;;;;;23.70;100856.00;;;;2072262;28;20691;-57
2022/06/16 04:44:22;;;;;;;1.50;1.40;;;;;23.70;100854.00;;;;2077461;28;20213;-57
2022/06/16 04:45:23;;;;;;;1.67;1.57;;;;;23.70;100854.00;;;;2077387;28;20217;-56
2022/06/16 04:46:23;;;;;;;1.80;1.60;;;;;23.70;100856.00;;;;2078763;28;20582;-58
2022/06/16 04:47:24;;;;;;;1.70;1.60;;;;;23.70;100853.00;;;;2077269;28;20664;-56
2022/06/16 04:48:25;;;;;;;1.73;1.63;;;;;23.70;100861.00;;;;2069516;28;20629;-57
2022/06/16 04:49:25;;;;;;;1.50;1.30;;;;;23.70;100857.00;;;;2078125;28;20218;-56
2022/06/16 04:50:25;;;;;;;1.60;1.40;;;;;23.70;100852.00;;;;2071350;28;20457;-55
2022/06/16 04:51:26;;;;;;;2.00;1.80;;;;;23.70;100863.00;;;;2072632;28;20214;-56
2022/06/16 04:52:26;;;;;;;1.40;1.30;;;;;23.70;100855.00;;;;2071079;28;20745;-61
2022/06/16 04:53:26;;;;;;;1.50;1.40;;;;;23.70;100870.00;;;;2071228;28;20699;-55
2022/06/16 04:54:27;;;;;;;1.80;1.70;;;;;23.70;100860.00;;;;2071782;28;20718;-56
2022/06/16 04:55:28;;;;;;;1.63;1.52;;;;;23.70;100856.00;;;;2068875;28;20237;-55
2022/06/16 04:56:29;;;;;;;2.27;1.70;;;;;23.70;100859.00;;;;2061496;28;20211;-57
2022/06/16 04:57:29;;;;;;;1.50;1.40;;;;;23.70;100862.00;;;;2062914;28;20210;-57
2022/06/16 04:58:29;;;;;;;2.10;1.50;;;;;23.70;100873.00;;;;2062919;28;20269;-58
2022/06/16 04:59:30;;;;;;;1.60;1.50;;;;;23.70;100864.00;;;;2069635;28;20214;-57
2022/06/16 05:00:30;;;;;;;1.57;1.47;;;;;23.70;100874.00;;;;2070307;28;20273;-56
2022/06/16 05:01:31;;;;;;;1.70;1.60;;;;;23.70;100877.00;;;;2071278;28;20261;-59
2022/06/16 05:02:31;;;;;;;1.80;1.57;;;;;23.70;100877.00;;;;2071207;28;20276;-57
2022/06/16 05:03:31;;;;;;;1.50;1.40;;;;;23.70;100882.00;;;;2070990;28;20221;-57
2022/06/16 05:04:32;;;;;;;1.43;1.33;;;;;23.70;100880.00;;;;2071378;28;20206;-57
2022/06/16 05:05:33;;;;;;;1.55;1.45;;;;;23.70;100884.00;;;;2068675;28;20214;-55
2022/06/16 05:06:33;;;;;;;1.40;1.30;;;;;23.70;100881.00;;;;2061962;28;20262;-58
2022/06/16 05:07:34;;;;;;;1.77;1.40;;;;;23.70;100883.00;;;;2070914;28;20224;-57
2022/06/16 05:08:34;;;;;;;1.47;1.37;;;;;23.70;100886.00;;;;2071491;28;20214;-57
2022/06/16 05:09:34;;;;;;;1.53;1.40;;;;;23.70;100889.00;;;;2070399;28;20280;-57
2022/06/16 05:10:35;;;;;;;1.60;1.50;;;;;23.70;100887.00;;;;2074592;28;20224;-59
2022/06/16 05:11:35;;;;;;;1.60;1.50;;;;;23.70;100888.00;;;;2069501;28;20255;-60
2022/06/16 05:12:35;;;;;;;1.50;1.40;;;;;23.70;100890.00;;;;2078307;28;20222;-57
2022/06/16 05:13:36;;;;;;;1.30;1.20;;;;;23.70;100890.00;;;;2078601;28;20243;-56
2022/06/16 05:14:36;;;;;;;1.70;1.60;;;;;23.70;100900.00;;;;2070114;28;20244;-57
2022/06/16 05:15:37;;;;;;;2.30;1.70;;;;;23.70;100878.00;;;;2068353;28;20226;-58
2022/06/16 05:16:37;;;;;;;1.70;1.57;;;;;23.70;100903.00;;;;2069898;28;20687;-56
2022/06/16 05:17:37;;;;;;;2.10;1.60;;;;;23.70;100911.00;;;;2070212;28;20634;-58
2022/06/16 05:18:38;;;;;;;1.83;1.60;;;;;23.70;100907.00;;;;2069841;28;20606;-57
2022/06/16 05:19:38;;;;;;;1.80;1.70;;;;;23.70;100907.00;;;;2071065;28;20206;-58
2022/06/16 05:20:41;;;;;;;2.20;1.80;;;;;23.70;100901.00;;;;2069264;28;20230;-57
2022/06/16 05:21:42;;;;;;;1.73;1.63;;;;;23.70;100908.00;;;;2060631;28;20258;-57
2022/06/16 05:22:42;;;;;;;2.03;1.70;;;;;23.70;100906.00;;;;2061374;28;20593;-57
2022/06/16 05:23:42;;;;;;;1.90;1.60;;;;;23.70;100915.00;;;;2060672;28;20338;-57
2022/06/16 05:24:43;;;;;;;2.50;1.70;;;;;23.70;100910.00;;;;2069497;28;20214;-57
2022/06/16 05:25:43;;;;;;;1.83;1.67;;;;;23.70;100907.00;;;;2068496;28;20301;-57
2022/06/16 05:26:44;;;;;;;1.40;1.30;;;;;23.70;100914.00;;;;2069549;28;20289;-57